Time;durP1;ratioP1;P1;durP2;ratioP2;P2;SDS_P1;SDS_P2;PMS_P1;PMS_P2;Temp;Humidity;BMP_temperature;BMP_pressure;BME280_temperature;BME280_humidity;BME280_pressure;Samples;Min_cycle;Max_cycle;Signal;HPM_P1;HPM_P2
2022/05/19 00:01:26;;;;;;;3.10;2.50;;;18.30;99.90;;;19.11;100.00;98465.50;4999041;28;20514;-77
2022/05/19 00:03:57;;;;;;;4.03;2.67;;;18.20;99.90;;;19.01;100.00;98468.75;4999660;28;20506;-77
2022/05/19 00:06:26;;;;;;;4.40;2.93;;;18.10;99.90;;;18.96;100.00;98465.16;4998617;28;20874;-77
2022/05/19 00:08:56;;;;;;;5.60;2.80;;;18.00;99.90;;;18.92;100.00;98469.28;5001152;28;20483;-77
2022/05/19 00:11:32;;;;;;;3.13;2.57;;;18.00;99.90;;;18.88;100.00;98460.22;5000247;28;20547;-77
2022/05/19 00:14:02;;;;;;;10.30;2.70;;;18.00;99.90;;;18.86;100.00;98462.28;5002208;28;20470;-77
2022/05/19 00:16:34;;;;;;;4.77;2.70;;;17.90;99.90;;;18.80;100.00;98463.19;4997333;28;20464;-76
2022/05/19 00:19:04;;;;;;;4.10;2.80;;;17.90;99.90;;;18.77;100.00;98463.66;5000362;28;20459;-76
2022/05/19 00:21:34;;;;;;;4.90;2.70;;;17.80;99.90;;;18.74;100.00;98462.28;4999167;28;20491;-77
2022/05/19 00:24:05;;;;;;;4.27;2.70;;;17.80;99.90;;;18.66;100.00;98467.91;5000461;28;20505;-77
2022/05/19 00:26:37;;;;;;;3.70;2.87;;;17.80;99.90;;;18.63;100.00;98462.25;5000183;28;20970;-76
2022/05/19 00:29:07;;;;;;;3.50;2.40;;;17.80;99.90;;;18.60;100.00;98459.00;5000298;28;20973;-77
2022/05/19 00:31:37;;;;;;;4.70;2.70;;;17.70;99.90;;;18.60;100.00;98464.31;4999190;28;20517;-76
2022/05/19 00:34:08;;;;;;;3.13;2.50;;;17.70;99.90;;;18.57;100.00;98469.25;4998981;28;20486;-77
2022/05/19 00:36:38;;;;;;;4.73;2.67;;;17.60;99.90;;;18.55;100.00;98460.75;4999996;28;20491;-76
2022/05/19 00:39:10;;;;;;;4.30;3.17;;;17.60;99.90;;;18.52;100.00;98456.72;5003270;28;20570;-77
2022/05/19 00:41:45;;;;;;;3.47;2.53;;;17.60;99.90;;;18.55;100.00;98452.78;4999277;28;20470;-77
2022/05/19 00:44:16;;;;;;;3.67;2.40;;;17.50;99.90;;;18.53;100.00;98447.72;5000256;28;20868;-76
2022/05/19 00:46:51;;;;;;;3.73;2.53;;;17.50;99.90;;;18.49;100.00;98438.59;5000900;28;21009;-77
2022/05/19 00:49:27;;;;;;;3.63;2.70;;;17.50;99.90;;;18.48;100.00;98433.50;4999180;28;20462;-77
2022/05/19 00:52:02;;;;;;;3.43;2.60;;;17.50;99.90;;;18.44;100.00;98438.47;4998536;28;20474;-76
2022/05/19 00:54:41;;;;;;;3.70;2.53;;;17.50;99.90;;;18.40;100.00;98439.13;4997455;28;20470;-77
2022/05/19 00:57:21;;;;;;;4.37;2.77;;;17.50;99.90;;;18.33;100.00;98436.59;4997710;28;20469;-76
2022/05/19 00:59:58;;;;;;;5.03;2.60;;;17.40;99.90;;;18.27;100.00;98441.97;4999221;28;20471;-77
2022/05/19 01:02:37;;;;;;;8.07;2.90;;;17.40;99.90;;;18.25;100.00;98444.06;4998164;28;20569;-77
2022/05/19 01:05:13;;;;;;;2.60;2.00;;;17.30;99.90;;;18.25;100.00;98444.06;4999871;28;21018;-77
2022/05/19 01:07:51;;;;;;;8.50;3.00;;;17.30;99.90;;;18.18;100.00;98438.88;4999830;28;20875;-76
2022/05/19 01:10:20;;;;;;;3.47;2.60;;;17.30;99.90;;;18.14;100.00;98443.00;4998261;28;20528;-77
2022/05/19 01:12:55;;;;;;;5.80;2.80;;;17.30;99.90;;;18.11;100.00;98438.16;5003096;28;20458;-76
2022/05/19 01:15:24;;;;;;;4.27;2.97;;;17.20;99.90;;;18.07;100.00;98442.28;4998476;28;21332;-77
2022/05/19 01:17:56;;;;;;;6.40;3.03;;;17.20;99.90;;;18.05;100.00;98436.38;4998184;28;20499;-77
2022/05/19 01:20:28;;;;;;;5.30;2.60;;;17.10;99.90;;;18.03;100.00;98446.41;4999890;28;20459;-77
2022/05/19 01:23:10;;;;;;;3.90;3.00;;;17.10;99.90;;;18.00;100.00;98441.56;5000280;28;20511;-77
2022/05/19 01:25:48;;;;;;;4.03;2.53;;;17.10;99.90;;;17.90;100.00;98442.09;5000420;28;20466;-77
2022/05/19 01:28:20;;;;;;;5.83;3.33;;;17.00;99.90;;;17.83;100.00;98445.88;4999322;28;20512;-77
2022/05/19 01:30:51;;;;;;;2.50;2.27;;;17.00;99.90;;;17.83;100.00;98445.88;4997612;28;20506;-77
2022/05/19 01:33:20;;;;;;;5.97;2.83;;;16.90;99.90;;;17.85;100.00;98446.44;4996327;28;20488;-77
2022/05/19 01:35:50;;;;;;;8.90;2.37;;;16.90;99.90;;;17.83;100.00;98451.16;4997383;28;20460;-77
2022/05/19 01:38:34;;;;;;;7.10;3.17;;;16.90;99.90;;;17.83;100.00;98445.88;5000885;28;20526;-77
2022/05/19 01:41:14;;;;;;;4.20;2.70;;;16.90;99.90;;;17.80;100.00;98446.31;4998660;28;20466;-77
2022/05/19 01:44:07;;;;;;;3.93;2.57;;;16.90;99.90;;;17.75;100.00;98443.50;4996537;28;20490;-78
2022/05/19 01:46:41;;;;;;;3.90;2.70;;;16.80;99.90;;;17.72;100.00;98443.97;4998070;28;20490;-77
2022/05/19 01:49:19;;;;;;;2.87;2.57;;;16.90;99.90;;;17.63;100.00;98435.53;4998507;28;20460;-77
2022/05/19 01:51:58;;;;;;;4.17;2.90;;;16.80;99.90;;;17.63;100.00;98440.00;4995571;28;20822;-77
2022/05/19 01:54:39;;;;;;;7.17;2.80;;;16.70;99.90;;;17.63;100.00;98434.72;4997529;28;20473;-77
2022/05/19 01:57:14;;;;;;;7.13;3.13;;;16.70;99.90;;;17.59;100.00;98424.59;4997116;28;20461;-77
2022/05/19 01:59:59;;;;;;;2.53;2.30;;;16.60;99.90;;;17.52;100.00;98418.53;4996736;28;20469;-77
2022/05/19 02:02:43;;;;;;;3.27;2.47;;;16.60;99.90;;;17.49;100.00;98416.31;5000241;28;20462;-77
2022/05/19 02:05:25;;;;;;;3.83;2.87;;;16.60;99.90;;;17.41;100.00;98406.06;5000170;28;20431;-76
2022/05/19 02:08:02;;;;;;;6.13;2.93;;;16.60;99.90;;;17.33;100.00;98414.28;4997488;28;20472;-77
2022/05/19 02:10:38;;;;;;;5.17;3.20;;;16.50;99.90;;;17.28;100.00;98411.50;4997273;28;20468;-77
2022/05/19 02:13:10;;;;;;;8.60;3.00;;;16.50;99.90;;;17.24;100.00;98420.91;4998381;28;20496;-77
2022/05/19 02:15:46;;;;;;;4.63;3.10;;;16.40;99.90;;;17.24;100.00;98428.84;4996913;28;20463;-77
2022/05/19 02:18:18;;;;;;;5.13;2.73;;;16.40;99.90;;;17.24;100.00;98431.47;4998152;28;20492;-77
2022/05/19 02:20:52;;;;;;;4.50;2.83;;;16.30;99.90;;;17.24;100.00;98431.47;4997952;28;20459;-77
2022/05/19 02:23:24;;;;;;;3.30;2.77;;;16.30;99.90;;;17.25;100.00;98433.06;4997399;28;20487;-77
2022/05/19 02:25:55;;;;;;;3.20;2.60;;;16.20;99.90;;;17.26;100.00;98432.06;4998444;28;20459;-77
2022/05/19 02:28:31;;;;;;;6.73;2.97;;;16.20;99.90;;;17.24;100.00;98430.66;5001881;28;20486;-77
2022/05/19 02:31:03;;;;;;;5.10;3.27;;;16.30;99.90;;;17.19;100.00;98433.16;5003731;28;20556;-77
2022/05/19 02:33:34;;;;;;;4.20;2.83;;;16.30;99.90;;;17.13;100.00;98426.91;4998904;28;20545;-76
2022/05/19 02:36:05;;;;;;;3.30;2.73;;;16.30;99.90;;;17.11;100.00;98428.97;5001413;28;20478;-76
2022/05/19 02:38:35;;;;;;;5.50;2.67;;;16.20;99.90;;;17.14;100.00;98435.66;5001485;28;20976;-77
2022/05/19 02:41:06;;;;;;;6.03;2.50;;;16.10;99.90;;;17.17;100.00;98440.50;5000579;28;20985;-77
2022/05/19 02:43:36;;;;;;;6.60;3.23;;;16.10;99.90;;;17.16;100.00;98436.22;5001201;28;20572;-77
2022/05/19 02:46:08;;;;;;;4.10;3.23;;;16.10;99.90;;;17.09;100.00;98431.00;5003366;28;20478;-76
2022/05/19 02:48:39;;;;;;;3.50;2.77;;;16.20;99.90;;;17.02;100.00;98441.66;4999740;28;20485;-77
2022/05/19 02:51:10;;;;;;;4.47;2.90;;;16.10;99.90;;;16.99;100.00;98433.34;5001780;28;20569;-77
2022/05/19 02:53:40;;;;;;;6.40;3.13;;;16.10;99.90;;;16.99;100.00;98430.72;5000937;28;20504;-77
2022/05/19 02:56:10;;;;;;;6.70;3.20;;;16.10;99.90;;;16.94;100.00;98431.34;5000192;28;20467;-77
2022/05/19 02:58:41;;;;;;;3.80;3.03;;;16.10;99.90;;;16.93;100.00;98434.22;5000870;28;20506;-77
2022/05/19 03:01:12;;;;;;;2.73;2.40;;;16.00;99.90;;;16.89;100.00;98433.84;5001559;28;20463;-76
2022/05/19 03:03:43;;;;;;;3.50;2.90;;;16.00;99.90;;;16.82;100.00;98435.75;5001779;28;20852;-77
2022/05/19 03:06:14;;;;;;;9.80;3.30;;;16.00;99.90;;;16.80;100.00;98429.06;5001563;28;20792;-77
2022/05/19 03:08:45;;;;;;;5.40;3.77;;;16.00;99.90;;;16.78;100.00;98437.22;5001777;28;20635;-86
2022/05/19 03:11:15;;;;;;;4.70;3.20;;;16.00;99.90;;;16.76;100.00;98433.16;5005231;28;20538;-77
2022/05/19 03:13:46;;;;;;;9.57;3.10;;;15.80;99.90;;;16.76;100.00;98428.69;5003223;28;20459;-77
2022/05/19 03:16:18;;;;;;;3.63;2.80;;;15.80;99.90;;;16.75;100.00;98428.91;5002591;28;20470;-77
2022/05/19 03:18:49;;;;;;;5.47;2.83;;;15.80;99.90;;;16.74;100.00;98425.44;5001292;28;20494;-77
2022/05/19 03:21:20;;;;;;;4.33;2.80;;;15.70;99.90;;;16.70;100.00;98423.44;5000002;28;20463;-77
2022/05/19 03:23:54;;;;;;;4.73;2.93;;;15.70;99.90;;;16.64;100.00;98419.84;5001269;28;20557;-85
2022/05/19 03:26:25;;;;;;;4.47;2.80;;;15.80;99.90;;;16.63;100.00;98425.34;5001543;28;20559;-76
2022/05/19 03:28:56;;;;;;;4.00;3.07;;;15.70;99.90;;;16.60;100.00;98429.22;5000905;28;20910;-76
2022/05/19 03:31:28;;;;;;;4.57;2.97;;;15.60;99.90;;;16.57;100.00;98427.84;5000859;28;20954;-76
2022/05/19 03:33:59;;;;;;;3.83;2.70;;;15.60;99.90;;;16.58;100.00;98426.81;5002684;28;20468;-76
2022/05/19 03:36:30;;;;;;;3.40;2.83;;;15.60;99.90;;;16.54;100.00;98425.59;5003143;28;20975;-76
2022/05/19 03:39:00;;;;;;;8.23;3.13;;;15.70;99.90;;;16.51;100.00;98426.03;5005822;28;20438;-76
2022/05/19 03:41:30;;;;;;;5.40;3.13;;;15.60;99.90;;;16.49;100.00;98421.97;5002445;28;20470;-76
2022/05/19 03:44:00;;;;;;;5.93;3.07;;;15.60;99.90;;;16.46;100.00;98427.69;4997286;28;20582;-76
2022/05/19 03:46:32;;;;;;;5.43;3.13;;;15.50;99.90;;;16.48;100.00;98426.47;4999408;28;20462;-77
2022/05/19 03:49:02;;;;;;;10.10;5.03;;;15.50;99.90;;;16.45;100.00;98428.72;5001784;28;20459;-75
2022/05/19 03:51:36;;;;;;;7.17;3.43;;;15.50;99.90;;;16.40;100.00;98418.00;4999598;28;20569;-76
2022/05/19 03:54:06;;;;;;;4.60;3.33;;;15.50;99.90;;;16.38;100.00;98431.38;4999378;28;20475;-76
2022/05/19 03:56:37;;;;;;;4.57;3.27;;;15.40;99.90;;;16.36;100.00;98422.88;5001356;28;20812;-76
2022/05/19 03:59:07;;;;;;;3.07;2.67;;;15.40;99.90;;;16.38;100.00;98430.59;5001374;28;20558;-76
2022/05/19 04:01:41;;;;;;;5.50;3.10;;;15.40;99.90;;;16.35;100.00;98434.47;5000599;28;20459;-76
2022/05/19 04:04:11;;;;;;;4.33;3.30;;;15.40;99.90;;;16.32;100.00;98437.53;4999456;28;20541;-77
2022/05/19 04:06:42;;;;;;;4.90;3.00;;;15.40;99.90;;;16.28;100.00;98446.09;4998414;28;20517;-73
2022/05/19 04:09:11;;;;;;;8.30;4.50;;;15.40;99.90;;;16.21;100.00;98446.13;5002139;28;20518;-76
2022/05/19 04:11:41;;;;;;;5.90;3.57;;;15.40;99.90;;;16.19;100.00;98448.19;4999694;28;20516;-79
2022/05/19 04:14:11;;;;;;;3.77;3.00;;;15.30;99.90;;;16.18;100.00;98443.91;5002606;28;20537;-76
2022/05/19 04:16:42;;;;;;;4.27;3.10;;;15.30;99.90;;;16.20;100.00;98454.28;5000532;28;20497;-77
2022/05/19 04:19:13;;;;;;;5.80;3.60;;;15.30;99.90;;;16.19;100.00;98455.28;4999965;28;20455;-76
2022/05/19 04:21:43;;;;;;;3.60;3.10;;;15.30;99.90;;;16.18;100.00;98466.84;4998818;28;20514;-76
2022/05/19 04:24:14;;;;;;;14.50;3.20;;;15.30;99.90;;;16.14;100.00;98469.09;5002217;28;20530;-76
2022/05/19 04:26:43;;;;;;;4.50;2.90;;;15.30;99.90;;;16.10;100.00;98473.22;5002989;28;20508;-76
2022/05/19 04:29:13;;;;;;;3.43;2.90;;;15.30;99.90;;;16.10;100.00;98470.56;5002691;28;20451;-76
2022/05/19 04:31:45;;;;;;;7.77;3.27;;;15.30;99.90;;;16.13;100.00;98464.88;5002273;28;20442;-77
2022/05/19 04:34:16;;;;;;;6.30;3.97;;;15.30;99.90;;;16.17;100.00;98454.69;5002402;28;20454;-76
2022/05/19 04:36:46;;;;;;;8.40;3.60;;;15.20;99.90;;;16.22;100.00;98462.78;5001115;28;21170;-76
2022/05/19 04:39:16;;;;;;;7.97;3.60;;;15.30;99.90;;;16.25;100.00;98462.34;5005209;28;20829;-76
2022/05/19 04:41:48;;;;;;;4.83;3.70;;;15.30;99.90;;;16.31;100.00;98458.88;5006851;28;20547;-77
2022/05/19 04:44:19;;;;;;;5.40;3.40;;;15.30;99.90;;;16.36;100.00;98451.13;5006885;28;20929;-77
2022/05/19 04:46:50;;;;;;;5.20;3.33;;;15.40;99.90;;;16.39;100.00;98443.56;5008044;28;20443;-77
2022/05/19 04:49:21;;;;;;;5.40;3.43;;;15.40;99.90;;;16.44;100.00;98451.66;5006743;28;20444;-77
2022/05/19 04:51:52;;;;;;;7.43;3.43;;;15.40;99.90;;;16.50;100.00;98447.34;5002935;28;20485;-77
2022/05/19 04:54:21;;;;;;;6.90;3.50;;;15.50;99.90;;;16.52;100.00;98446.09;5001802;28;20446;-77
2022/05/19 04:56:51;;;;;;;5.87;3.57;;;15.50;99.90;;;16.53;100.00;98439.81;5001357;28;20451;-77
2022/05/19 04:59:20;;;;;;;5.00;3.30;;;15.50;99.90;;;16.53;100.00;98450.38;5002154;28;20453;-77
2022/05/19 05:01:53;;;;;;;4.63;2.80;;;15.60;99.90;;;16.52;100.00;98453.25;5000626;28;20466;-76
2022/05/19 05:04:23;;;;;;;5.03;3.40;;;15.60;99.90;;;16.54;100.00;98452.00;5001318;28;20444;-76
2022/05/19 05:06:53;;;;;;;9.03;3.23;;;15.60;99.90;;;16.57;100.00;98456.88;5001863;28;20451;-76
2022/05/19 05:09:22;;;;;;;5.33;3.17;;;15.70;99.90;;;16.60;100.00;98455.63;5000553;28;20484;-76
2022/05/19 05:11:53;;;;;;;4.83;3.10;;;15.70;99.90;;;16.64;100.00;98459.47;5000492;28;20448;-77
2022/05/19 05:14:23;;;;;;;3.80;3.27;;;15.80;99.90;;;16.71;100.00;98473.44;5000744;28;20452;-76
2022/05/19 05:16:56;;;;;;;5.30;3.40;;;15.80;99.90;;;16.78;100.00;98476.00;5002324;28;20546;-78
2022/05/19 05:19:26;;;;;;;6.30;3.43;;;15.80;99.90;;;16.85;100.00;98471.47;5000979;28;21021;-76
2022/05/19 05:22:00;;;;;;;5.60;3.70;;;15.90;99.90;;;16.89;100.00;98470.84;5000999;28;20487;-77
2022/05/19 05:24:30;;;;;;;6.70;3.50;;;16.00;99.90;;;16.94;100.00;98472.81;5002439;28;20460;-77
2022/05/19 05:27:03;;;;;;;5.20;3.83;;;16.00;99.90;;;17.00;100.00;98469.34;5001043;28;20444;-76
2022/05/19 05:29:32;;;;;;;5.77;3.40;;;16.00;99.90;;;17.05;100.00;98482.69;4999445;28;20469;-77
2022/05/19 05:32:08;;;;;;;6.73;4.03;;;16.10;99.90;;;17.09;100.00;98468.81;5000691;28;20522;-77
2022/05/19 05:34:38;;;;;;;4.20;3.57;;;16.10;99.90;;;17.14;100.00;98473.47;5001059;28;20444;-77
2022/05/19 05:37:08;;;;;;;5.30;3.50;;;16.20;99.90;;;17.18;100.00;98474.63;5002521;28;20447;-76
2022/05/19 05:39:39;;;;;;;7.13;3.73;;;16.20;99.90;;;17.21;100.00;98468.91;5001404;28;20507;-77
2022/05/19 05:42:11;;;;;;;4.37;3.20;;;16.30;99.90;;;17.26;100.00;98477.00;4999628;28;21003;-77
2022/05/19 05:44:41;;;;;;;7.63;3.27;;;16.30;99.90;;;17.28;100.00;98468.84;5000450;28;20445;-77
2022/05/19 05:47:13;;;;;;;4.50;3.10;;;16.30;99.90;;;17.34;100.00;98475.91;5000965;28;20444;-77
2022/05/19 05:49:43;;;;;;;7.00;3.60;;;16.40;99.90;;;17.38;100.00;98474.44;5002820;28;20949;-76
2022/05/19 05:52:14;;;;;;;4.17;3.10;;;16.40;99.90;;;17.40;100.00;98473.19;5004222;28;20509;-77
2022/05/19 05:54:43;;;;;;;5.10;3.30;;;16.50;99.90;;;17.41;100.00;98480.09;5005500;28;20914;-77
2022/05/19 05:57:14;;;;;;;7.03;3.20;;;16.50;99.90;;;17.41;100.00;98472.16;5006708;28;20452;-76
2022/05/19 05:59:44;;;;;;;7.63;3.33;;;16.60;99.90;;;17.46;100.00;98477.59;5006286;28;20514;-76
2022/05/19 06:02:15;;;;;;;7.73;3.47;;;16.50;99.90;;;17.51;100.00;98469.81;5008551;28;20542;-76
2022/05/19 06:04:45;;;;;;;7.77;4.77;;;16.50;99.90;;;17.56;100.00;98461.25;5008231;28;21016;-77
2022/05/19 06:07:14;;;;;;;6.23;3.57;;;16.60;99.90;;;17.60;100.00;98460.56;5009428;28;20497;-77
2022/05/19 06:09:49;;;;;;;4.50;3.37;;;16.60;99.90;;;17.66;100.00;98466.03;5007207;28;20471;-77
2022/05/19 06:12:18;;;;;;;6.07;3.40;;;16.70;99.90;;;17.71;100.00;98466.97;5007411;28;20536;-77
2022/05/19 06:14:47;;;;;;;4.43;4.03;;;16.70;99.90;;;17.76;100.00;98461.00;5006821;28;20847;-77
2022/05/19 06:17:19;;;;;;;5.97;4.00;;;16.80;99.90;;;17.79;100.00;98468.50;5007374;28;20481;-76
2022/05/19 06:19:49;;;;;;;4.50;3.40;;;16.90;99.90;;;17.85;100.00;98472.91;5006649;28;20933;-77
2022/05/19 06:22:22;;;;;;;5.73;3.90;;;16.90;99.90;;;17.89;100.00;98482.00;5004977;28;20447;-76
2022/05/19 06:24:51;;;;;;;5.00;3.57;;;16.90;99.90;;;17.93;100.00;98467.31;5005919;28;20783;-77
2022/05/19 06:27:22;;;;;;;4.87;3.93;;;17.10;99.90;;;17.97;100.00;98460.53;5006299;28;20841;-77
2022/05/19 06:29:52;;;;;;;5.63;4.00;;;17.10;99.90;;;18.03;100.00;98457.00;5006530;28;20959;-77
2022/05/19 06:32:24;;;;;;;4.50;3.53;;;17.20;99.90;;;18.05;100.00;98460.19;5005779;28;20975;-77
2022/05/19 06:34:54;;;;;;;8.20;3.70;;;17.20;99.90;;;18.10;100.00;98463.00;5004836;28;20959;-77
2022/05/19 06:37:24;;;;;;;10.60;3.63;;;17.20;99.90;;;18.16;100.00;98448.03;5003866;28;20999;-76
2022/05/19 06:39:54;;;;;;;4.07;3.40;;;17.20;99.90;;;18.22;100.00;98461.22;5005304;28;20953;-77
2022/05/19 06:42:25;;;;;;;5.03;3.60;;;17.30;99.90;;;18.27;100.00;98452.56;5004226;28;20450;-77
2022/05/19 06:44:56;;;;;;;4.00;3.40;;;17.30;99.90;;;18.34;100.00;98462.03;5004700;28;20487;-77
2022/05/19 06:47:28;;;;;;;8.40;3.47;;;17.40;99.90;;;18.40;100.00;98461.13;5004802;28;20955;-76
2022/05/19 06:49:57;;;;;;;9.17;3.53;;;17.50;99.90;;;18.45;100.00;98461.28;5004218;28;20974;-77
2022/05/19 06:52:30;;;;;;;6.13;3.97;;;17.60;99.90;;;18.50;100.00;98456.13;5004375;28;20543;-77
2022/05/19 06:55:03;;;;;;;6.57;3.67;;;17.60;99.90;;;18.56;100.00;98449.94;5003383;28;20439;-76
2022/05/19 06:57:32;;;;;;;4.57;3.77;;;17.70;99.90;;;18.64;100.00;98458.59;5003582;28;20440;-78
2022/05/19 07:00:06;;;;;;;5.93;4.07;;;17.70;99.90;;;18.72;100.00;98456.38;5003225;28;20444;-76
2022/05/19 07:02:36;;;;;;;4.73;3.60;;;17.80;99.90;;;18.79;100.00;98466.88;5003448;28;20442;-77
2022/05/19 07:05:10;;;;;;;5.43;3.67;;;17.90;99.90;;;18.86;100.00;98462.28;5004327;28;20534;-76
2022/05/19 07:07:39;;;;;;;12.90;3.70;;;18.00;99.90;;;18.93;100.00;98462.97;5003486;28;20487;-76
2022/05/19 07:10:11;;;;;;;3.20;2.90;;;18.10;99.90;;;19.00;100.00;98455.72;5002840;28;20440;-77
2022/05/19 07:12:43;;;;;;;4.80;3.50;;;18.20;99.90;;;19.06;100.00;98463.53;5001905;28;20782;-76
2022/05/19 07:15:19;;;;;;;4.03;3.63;;;18.20;99.90;;;19.14;100.00;98470.34;5003793;28;20817;-76
2022/05/19 07:17:51;;;;;;;4.50;3.10;;;18.20;99.90;;;19.20;100.00;98466.75;5002799;28;20483;-77
2022/05/19 07:23:11;;;;;;;5.17;2.70;;;18.50;99.90;;;19.37;100.00;98458.91;5004078;28;20513;-76
2022/05/19 07:25:41;;;;;;;5.57;2.83;;;18.60;99.90;;;19.44;100.00;98452.47;5003975;28;20877;-76
2022/05/19 07:28:12;;;;;;;6.13;2.90;;;18.70;99.90;;;19.51;100.00;98449.69;5003444;28;20442;-76
2022/05/19 07:30:44;;;;;;;5.00;3.30;;;18.70;99.90;;;19.57;100.00;98454.88;5003931;28;21221;-76
2022/05/19 07:33:17;;;;;;;4.73;3.20;;;18.90;99.90;;;19.66;100.00;98451.84;5007279;28;20459;-76
2022/05/19 07:35:47;;;;;;;6.07;2.90;;;18.90;99.90;;;19.74;100.00;98454.16;5008407;28;20490;-76
2022/05/19 07:38:17;;;;;;;4.33;3.30;;;19.00;99.90;;;19.82;100.00;98448.47;5007341;28;20455;-77
2022/05/19 07:40:46;;;;;;;6.00;3.73;;;19.00;99.90;;;19.88;100.00;98451.00;5008440;28;20459;-76
2022/05/19 07:46:04;;;;;;;5.50;2.67;;;19.20;99.90;;;20.02;100.00;98446.19;5005919;28;20481;-76
2022/05/19 07:48:36;;;;;;;6.40;3.10;;;19.30;99.90;;;20.09;100.00;98436.25;5004394;28;20929;-77
2022/05/19 07:51:07;;;;;;;5.00;2.60;;;19.40;99.90;;;20.15;100.00;98435.28;5004646;28;20630;-76
2022/05/19 07:53:36;;;;;;;5.40;2.93;;;19.40;99.90;;;20.22;100.00;98435.94;5006129;28;20483;-77
2022/05/19 07:56:07;;;;;;;8.60;3.50;;;19.50;99.90;;;20.28;100.00;98435.00;5005260;28;20472;-76
2022/05/19 07:58:37;;;;;;;7.40;2.60;;;19.60;99.90;;;20.34;100.00;98431.38;5003810;28;20443;-76
2022/05/19 08:01:07;;;;;;;4.17;2.97;;;19.60;99.90;;;20.42;100.00;98436.31;5002803;28;20585;-77
2022/05/19 08:03:39;;;;;;;5.37;2.83;;;19.70;99.90;;;20.51;100.00;98434.06;5003124;28;21320;-77
2022/05/19 08:06:10;;;;;;;8.03;3.30;;;19.80;99.90;;;20.58;100.00;98430.19;5003459;28;20474;-77
2022/05/19 08:08:39;;;;;;;3.20;2.70;;;19.90;99.90;;;20.68;100.00;98426.09;5004647;28;20491;-77
2022/05/19 08:11:10;;;;;;;12.00;2.97;;;20.00;99.90;;;20.75;100.00;98427.53;5004161;28;20493;-77
2022/05/19 08:16:42;;;;;;;6.97;3.10;;;20.20;99.90;;;20.96;100.00;98428.66;4962865;28;20510;-76
2022/05/19 08:19:13;;;;;;;4.73;3.47;;;20.40;99.90;;;21.02;100.00;98425.00;4963543;28;20457;-77
2022/05/19 08:21:44;;;;;;;6.03;2.93;;;20.40;99.90;;;21.11;100.00;98417.44;4981418;28;20458;-77
2022/05/19 08:24:14;;;;;;;7.70;3.33;;;20.50;99.90;;;21.22;100.00;98413.88;5001989;28;20930;-76
2022/05/19 08:26:44;;;;;;;4.87;2.60;;;20.60;99.90;;;21.33;100.00;98419.09;5002599;28;20491;-77
2022/05/19 08:29:18;;;;;;;4.60;3.00;;;20.70;99.90;;;21.44;100.00;98407.53;5002626;28;20452;-76
2022/05/19 08:31:49;;;;;;;4.37;3.00;;;20.80;99.90;;;21.56;100.00;98416.16;5002084;28;20889;-77
2022/05/19 08:34:20;;;;;;;5.83;2.67;;;20.90;99.90;;;21.67;100.00;98406.44;5002598;28;20825;-76
2022/05/19 08:36:50;;;;;;;3.70;2.70;;;21.00;99.90;;;21.78;100.00;98407.34;5003086;28;21000;-77
2022/05/19 08:39:22;;;;;;;4.23;3.07;;;21.10;99.90;;;21.86;100.00;98409.59;5001416;28;20452;-77
2022/05/19 08:41:58;;;;;;;3.27;2.50;;;21.20;99.90;;;21.95;100.00;98421.41;5001359;28;20541;-77
2022/05/19 08:44:33;;;;;;;3.60;2.80;;;21.30;99.90;;;22.06;100.00;98417.81;5002073;28;20478;-77
2022/05/19 08:47:07;;;;;;;2.90;2.50;;;21.40;99.90;;;22.15;100.00;98413.63;5001888;28;20553;-77
2022/05/19 08:49:46;;;;;;;4.13;2.53;;;21.50;99.90;;;22.27;100.00;98402.81;5002308;28;20444;-77
2022/05/19 08:52:20;;;;;;;3.60;2.67;;;21.70;99.90;;;22.37;100.00;98401.03;5000880;28;20510;-76
2022/05/19 08:54:54;;;;;;;11.43;3.17;;;21.80;99.90;;;22.46;99.62;98396.84;5002252;28;20443;-77
2022/05/19 08:57:28;;;;;;;5.60;3.10;;;21.90;99.90;;;22.57;98.95;98392.41;5002025;28;20956;-77
2022/05/19 09:00:09;;;;;;;5.23;3.07;;;22.00;99.90;;;22.64;98.12;98392.16;5001224;28;20949;-77
2022/05/19 09:02:45;;;;;;;4.50;3.20;;;22.10;99.90;;;22.69;96.73;98392.25;5002785;28;20452;-76
2022/05/19 09:05:46;;;;;;;5.37;3.13;;;22.10;99.90;;;22.78;93.60;98394.19;5000814;28;20470;-76
2022/05/19 09:08:37;;;;;;;4.10;3.07;;;22.30;99.90;;;22.87;90.70;98384.63;5000766;28;20538;-77
2022/05/19 09:11:13;;;;;;;8.53;3.03;;;22.20;99.90;;;22.94;92.34;98390.53;5002125;28;20444;-77
2022/05/19 09:13:51;;;;;;;6.03;2.83;;;22.30;99.90;;;23.02;93.16;98390.06;5000516;28;20993;-76
2022/05/19 09:16:25;;;;;;;6.70;2.87;;;22.40;99.90;;;23.08;92.33;98393.56;5000418;28;21136;-77
2022/05/19 09:19:11;;;;;;;3.83;2.30;;;22.40;99.90;;;23.17;90.92;98392.00;5005120;28;20451;-77
2022/05/19 09:21:46;;;;;;;6.27;2.73;;;22.50;99.90;;;23.29;88.99;98384.59;5005799;28;20454;-77
2022/05/19 09:24:18;;;;;;;7.23;3.90;;;22.60;99.70;;;23.37;89.32;98386.75;5006076;28;20512;-77
2022/05/19 09:26:52;;;;;;;2.90;2.40;;;22.80;99.90;;;23.47;89.46;98380.69;5006700;28;20448;-77
2022/05/19 09:29:30;;;;;;;5.00;3.23;;;22.90;99.80;;;23.53;86.47;98383.09;5006187;28;20441;-77
2022/05/19 09:32:14;;;;;;;5.40;2.70;;;22.90;99.20;;;23.62;86.45;98380.75;5006119;28;20455;-77
2022/05/19 09:34:48;;;;;;;3.80;2.70;;;23.00;99.20;;;23.73;86.50;98376.25;5006070;28;20439;-77
2022/05/19 09:37:35;;;;;;;4.87;3.00;;;23.20;99.20;;;23.85;85.29;98379.44;5008030;28;20446;-76
2022/05/19 09:40:21;;;;;;;8.03;3.37;;;23.30;99.00;;;23.97;83.28;98372.81;5006433;28;20807;-76
2022/05/19 09:43:17;;;;;;;12.47;2.70;;;23.40;98.40;;;24.09;83.13;98374.44;5005029;28;20499;-77
2022/05/19 09:45:51;;;;;;;3.40;2.90;;;23.60;98.50;;;24.15;82.23;98376.88;5004953;28;20447;-77
2022/05/19 09:48:27;;;;;;;6.10;2.60;;;23.60;98.20;;;24.23;82.19;98370.97;5003031;28;21450;-77
2022/05/19 09:51:05;;;;;;;5.30;3.03;;;23.60;98.30;;;24.30;82.59;98368.84;5002789;28;20462;-77
2022/05/19 09:53:42;;;;;;;5.20;3.40;;;23.70;98.60;;;24.39;83.27;98361.09;5003406;28;20439;-76
2022/05/19 09:56:15;;;;;;;9.20;3.43;;;23.80;98.50;;;24.44;81.71;98367.25;5002681;28;20958;-77
2022/05/19 09:58:48;;;;;;;5.93;2.97;;;23.80;98.30;;;24.54;80.55;98359.22;5005100;28;20995;-77
2022/05/19 10:01:27;;;;;;;3.13;2.47;;;23.90;98.10;;;24.66;81.85;98366.16;5003925;28;20452;-76
2022/05/19 10:04:01;;;;;;;6.00;3.60;;;24.10;98.30;;;24.74;79.77;98368.28;5002327;28;20479;-76
2022/05/19 10:06:47;;;;;;;5.90;2.80;;;24.20;97.70;;;24.82;79.04;98363.19;5000925;28;20458;-77
2022/05/19 10:09:22;;;;;;;5.00;2.97;;;24.20;97.80;;;24.93;79.06;98361.31;5001465;28;20581;-76
2022/05/19 10:11:55;;;;;;;4.03;2.80;;;24.40;97.70;;;24.99;79.57;98360.25;5000937;28;20449;-76
2022/05/19 10:14:30;;;;;;;4.77;2.90;;;24.40;97.90;;;25.05;80.34;98361.81;5000879;28;20484;-77
2022/05/19 10:17:12;;;;;;;4.97;3.40;;;24.50;98.10;;;25.07;78.37;98365.03;4999674;28;20493;-76
2022/05/19 10:20:04;;;;;;;8.33;3.00;;;24.40;97.60;;;25.19;78.79;98370.88;5000297;28;20453;-76
2022/05/19 10:23:32;;;;;;;4.70;2.90;;;24.50;97.90;;;25.27;79.38;98361.50;5001348;28;20451;-77
2022/05/19 10:26:27;;;;;;;5.70;3.27;;;24.70;97.80;;;25.33;78.68;98363.88;5000584;28;20451;-77
2022/05/19 10:32:44;;;;;;;5.20;3.87;;;24.90;97.80;;;25.52;78.72;98351.47;5002415;28;20447;-77
2022/05/19 10:35:29;;;;;;;10.00;3.13;;;24.90;97.70;;;25.58;78.01;98344.22;5000391;28;20554;-76
2022/05/19 10:38:33;;;;;;;7.23;3.40;;;25.00;97.50;;;25.65;77.87;98338.56;5001182;28;20528;-76
2022/05/19 10:41:19;;;;;;;9.40;3.37;;;25.00;97.50;;;25.74;78.09;98331.53;5000204;28;20461;-77
2022/05/19 10:44:09;;;;;;;11.20;3.87;;;25.10;97.60;;;25.81;78.20;98326.66;5000168;28;20949;-76
2022/05/19 10:46:55;;;;;;;4.87;2.70;;;25.20;97.50;;;25.80;75.34;98330.41;5000490;28;20440;-77
2022/05/19 10:50:09;;;;;;;4.73;2.90;;;25.20;96.90;;;25.90;76.01;98330.34;5003893;28;20564;-77
2022/05/19 10:52:59;;;;;;;5.70;2.73;;;25.30;97.10;;;25.92;75.77;98328.19;4992032;28;21024;-77